createdAt,value
2023-05-14T00:00:06.143Z,8.48
2023-05-14T00:01:06.118Z,8.46
2023-05-14T00:02:06.139Z,8.46
2023-05-14T00:03:06.348Z,8.45
2023-05-14T00:04:06.147Z,8.45
2023-05-14T00:05:06.079Z,8.43
2023-05-14T00:06:06.082Z,8.38
2023-05-14T00:07:06.036Z,8.31
2023-05-14T00:08:06.068Z,8.24
2023-05-14T00:09:06.048Z,8.20
2023-05-14T00:10:06.071Z,8.19
2023-05-14T00:11:05.996Z,8.19
2023-05-14T00:12:05.973Z,8.19
2023-05-14T00:13:05.974Z,8.18
2023-05-14T00:14:06.014Z,8.16
2023-05-14T00:15:05.935Z,8.14
2023-05-14T00:16:06.199Z,8.13
2023-05-14T00:17:05.940Z,8.11
2023-05-14T00:18:05.922Z,8.09
2023-05-14T00:19:06.102Z,8.07
2023-05-14T00:20:05.876Z,8.07
2023-05-14T00:21:05.871Z,8.08
2023-05-14T00:22:05.833Z,8.07
2023-05-14T00:23:05.861Z,8.05
2023-05-14T00:24:05.854Z,8.02
2023-05-14T00:25:05.806Z,7.98
2023-05-14T00:26:05.797Z,7.97
2023-05-14T00:27:05.757Z,7.98
2023-05-14T00:28:05.774Z,7.99
2023-05-14T00:29:05.787Z,8.00
2023-05-14T00:30:05.758Z,8.02
2023-05-14T00:31:05.717Z,8.03
2023-05-14T00:32:05.741Z,8.03
2023-05-14T00:33:05.719Z,8.02
2023-05-14T00:34:05.687Z,8.01
2023-05-14T00:35:05.664Z,8.03
2023-05-14T00:36:05.649Z,8.06
2023-05-14T00:37:05.695Z,8.09
2023-05-14T00:38:05.613Z,8.10
2023-05-14T00:39:05.594Z,8.10
2023-05-14T00:40:05.675Z,8.11
2023-05-14T00:41:05.579Z,8.12
2023-05-14T00:42:05.580Z,8.12
2023-05-14T00:43:05.561Z,8.13
2023-05-14T00:44:05.561Z,8.13
2023-05-14T00:45:05.559Z,8.12
2023-05-14T00:46:05.545Z,8.11
2023-05-14T00:47:05.551Z,8.09
2023-05-14T00:48:05.527Z,8.06
2023-05-14T00:49:05.490Z,8.01
2023-05-14T00:50:05.468Z,7.94
2023-05-14T00:51:05.473Z,7.87
2023-05-14T00:52:05.432Z,7.82
2023-05-14T00:53:05.405Z,7.76
2023-05-14T00:54:05.428Z,7.72
2023-05-14T00:55:05.400Z,7.69
2023-05-14T00:56:05.386Z,7.68
2023-05-14T00:57:05.354Z,7.68
2023-05-14T00:58:05.387Z,7.69
2023-05-14T00:59:05.328Z,7.73
2023-05-14T01:00:05.347Z,7.76
2023-05-14T01:01:05.379Z,7.76
2023-05-14T01:02:05.306Z,7.73
2023-05-14T01:03:05.305Z,7.70
2023-05-14T01:04:05.405Z,7.66
2023-05-14T01:05:05.253Z,7.61
2023-05-14T01:06:05.267Z,7.59
2023-05-14T01:07:05.243Z,7.59
2023-05-14T01:08:05.231Z,7.60
2023-05-14T01:09:05.234Z,7.61
2023-05-14T01:10:05.201Z,7.59
2023-05-14T01:11:05.220Z,7.55
2023-05-14T01:12:05.164Z,7.49
2023-05-14T01:13:05.206Z,7.45
2023-05-14T01:14:05.143Z,7.43
2023-05-14T01:15:05.169Z,7.44
2023-05-14T01:16:05.174Z,7.46
2023-05-14T01:17:05.108Z,7.47
2023-05-14T01:18:05.166Z,7.48
2023-05-14T01:19:05.118Z,7.46
2023-05-14T01:20:05.070Z,7.43
2023-05-14T01:21:05.079Z,7.38
2023-05-14T01:22:05.051Z,7.34
2023-05-14T01:23:05.038Z,7.30
2023-05-14T01:24:05.036Z,7.25
2023-05-14T01:25:04.984Z,7.19
2023-05-14T01:26:05.001Z,7.14
2023-05-14T01:27:04.984Z,7.10
2023-05-14T01:28:04.970Z,7.07
2023-05-14T01:29:04.937Z,7.07
2023-05-14T01:30:04.960Z,7.08
2023-05-14T01:31:04.951Z,7.09
2023-05-14T01:32:05.078Z,7.10
2023-05-14T01:33:04.972Z,7.12
2023-05-14T01:34:04.983Z,7.16
2023-05-14T01:35:04.871Z,7.19
2023-05-14T01:36:04.858Z,7.21
2023-05-14T01:37:04.838Z,7.20
2023-05-14T01:38:04.839Z,7.17
2023-05-14T01:39:04.826Z,7.14
2023-05-14T01:40:04.818Z,7.13
2023-05-14T01:41:04.783Z,7.14
2023-05-14T01:42:04.794Z,7.17
2023-05-14T01:43:04.783Z,7.20
2023-05-14T01:44:04.759Z,7.23
2023-05-14T01:45:04.716Z,7.27
2023-05-14T01:46:04.853Z,7.31
2023-05-14T01:47:04.698Z,7.34
2023-05-14T01:48:04.742Z,7.36
2023-05-14T01:49:04.655Z,7.37
2023-05-14T01:50:04.692Z,7.37
2023-05-14T01:51:04.710Z,7.35
2023-05-14T01:52:04.685Z,7.33
2023-05-14T01:53:04.645Z,7.30
2023-05-14T01:54:04.625Z,7.28
2023-05-14T01:55:04.580Z,7.28
2023-05-14T01:56:04.603Z,7.29
2023-05-14T01:57:04.620Z,7.32
2023-05-14T01:58:04.543Z,7.36
2023-05-14T01:59:04.530Z,7.41
2023-05-14T02:00:04.547Z,7.46
2023-05-14T02:01:04.555Z,7.50
2023-05-14T02:02:04.543Z,7.54
2023-05-14T02:03:04.510Z,7.55
2023-05-14T02:04:04.552Z,7.56
2023-05-14T02:05:06.925Z,7.57
2023-05-14T02:06:04.462Z,7.57
2023-05-14T02:07:04.422Z,7.57
2023-05-14T02:08:04.443Z,7.57
2023-05-14T02:09:04.432Z,7.57
2023-05-14T02:10:04.395Z,7.59
2023-05-14T02:11:04.449Z,7.61
2023-05-14T02:12:04.371Z,7.63
2023-05-14T02:13:04.339Z,7.65
2023-05-14T02:14:04.383Z,7.67
2023-05-14T02:15:04.314Z,7.69
2023-05-14T02:16:04.377Z,7.70
2023-05-14T02:17:04.286Z,7.70
2023-05-14T02:18:04.359Z,7.72
2023-05-14T02:19:04.445Z,7.73
2023-05-14T02:20:04.289Z,7.74
2023-05-14T02:21:04.311Z,7.76
2023-05-14T02:22:04.283Z,7.77
2023-05-14T02:23:04.242Z,7.77
2023-05-14T02:24:04.250Z,7.77
2023-05-14T02:25:04.220Z,7.79
2023-05-14T02:26:04.206Z,7.80
2023-05-14T02:27:04.207Z,7.83
2023-05-14T02:28:04.163Z,7.85
2023-05-14T02:29:04.137Z,7.87
2023-05-14T02:30:04.157Z,7.87
2023-05-14T02:31:04.143Z,7.86
2023-05-14T02:32:04.184Z,7.86
2023-05-14T02:33:04.270Z,7.87
2023-05-14T02:34:04.096Z,7.90
2023-05-14T02:35:04.078Z,7.92
2023-05-14T02:36:04.071Z,7.94
2023-05-14T02:37:04.049Z,7.95
2023-05-14T02:38:04.019Z,7.94
2023-05-14T02:39:04.029Z,7.92
2023-05-14T02:40:04.009Z,7.90
2023-05-14T02:41:04.015Z,7.87
2023-05-14T02:42:04.002Z,7.86
2023-05-14T02:43:03.983Z,7.85
2023-05-14T02:44:03.944Z,7.87
2023-05-14T02:45:03.949Z,7.88
2023-05-14T02:46:03.950Z,7.87
2023-05-14T02:47:04.019Z,7.87
2023-05-14T02:48:03.986Z,7.87
2023-05-14T02:49:03.894Z,7.86
2023-05-14T02:50:03.882Z,7.87
2023-05-14T02:51:03.852Z,7.89
2023-05-14T02:52:03.839Z,7.92
2023-05-14T02:53:03.882Z,7.95
2023-05-14T02:54:03.828Z,7.99
2023-05-14T02:55:03.810Z,8.02
2023-05-14T02:56:03.782Z,8.05
2023-05-14T02:57:03.765Z,8.06
2023-05-14T02:58:03.749Z,8.06
2023-05-14T02:59:03.773Z,8.05
2023-05-14T03:00:03.747Z,8.06
2023-05-14T03:01:03.902Z,8.06
2023-05-14T03:02:03.781Z,8.06
2023-05-14T03:03:03.820Z,8.05
2023-05-14T03:04:03.684Z,8.04
2023-05-14T03:05:03.667Z,8.05
2023-05-14T03:06:03.717Z,8.07
2023-05-14T03:07:03.647Z,8.09
2023-05-14T03:08:03.624Z,8.11
2023-05-14T03:09:03.620Z,8.12
2023-05-14T03:10:03.621Z,8.13
2023-05-14T03:11:03.613Z,8.14
2023-05-14T03:12:03.601Z,8.16
2023-05-14T03:13:03.557Z,8.16
2023-05-14T03:14:03.567Z,8.13
2023-05-14T03:15:03.516Z,8.11
2023-05-14T03:16:03.515Z,8.08
2023-05-14T03:17:03.594Z,8.06
2023-05-14T03:18:03.568Z,8.02
2023-05-14T03:19:03.562Z,7.99
2023-05-14T03:20:03.496Z,7.97
2023-05-14T03:21:03.438Z,7.94
2023-05-14T03:22:03.444Z,7.92
2023-05-14T03:23:03.437Z,7.89
2023-05-14T03:24:03.402Z,7.88
2023-05-14T03:25:03.422Z,7.87
2023-05-14T03:26:03.381Z,7.88
2023-05-14T03:27:03.416Z,7.89
2023-05-14T03:28:03.378Z,7.88
2023-05-14T03:29:03.356Z,7.87
2023-05-14T03:30:03.347Z,7.86
2023-05-14T03:31:03.416Z,7.84
2023-05-14T03:32:03.309Z,7.85
2023-05-14T03:33:03.433Z,7.88
2023-05-14T03:34:03.289Z,7.91
2023-05-14T03:35:03.275Z,7.93
2023-05-14T03:36:03.281Z,7.94
2023-05-14T03:37:03.260Z,7.95
2023-05-14T03:38:03.244Z,7.95
2023-05-14T03:39:03.245Z,7.94
2023-05-14T03:40:03.215Z,7.93
2023-05-14T03:41:03.194Z,7.92
2023-05-14T03:42:03.228Z,7.87
2023-05-14T03:43:03.204Z,7.83
2023-05-14T03:44:03.149Z,7.80
2023-05-14T03:45:03.160Z,7.78
2023-05-14T03:46:03.123Z,7.76
2023-05-14T03:47:03.116Z,7.73
2023-05-14T03:48:03.199Z,7.69
2023-05-14T03:49:03.190Z,7.67
2023-05-14T03:50:03.047Z,7.65
2023-05-14T03:51:03.042Z,7.65
2023-05-14T03:52:03.049Z,7.65
2023-05-14T03:53:03.080Z,7.65
2023-05-14T03:54:03.018Z,7.63
2023-05-14T03:55:03.022Z,7.59
2023-05-14T03:56:02.998Z,7.56
2023-05-14T03:57:02.984Z,7.54
2023-05-14T03:58:02.998Z,7.52
2023-05-14T03:59:02.998Z,7.49
2023-05-14T04:00:02.927Z,7.46
2023-05-14T04:01:02.950Z,7.42
2023-05-14T04:02:02.927Z,7.38
2023-05-14T04:03:02.900Z,7.35
2023-05-14T04:04:03.069Z,7.33
2023-05-14T04:05:02.869Z,7.33
2023-05-14T04:06:02.874Z,7.34
2023-05-14T04:07:02.845Z,7.34
2023-05-14T04:08:02.842Z,7.34
2023-05-14T04:09:02.869Z,7.33
2023-05-14T04:10:04.285Z,7.33
2023-05-14T04:11:02.800Z,7.33
2023-05-14T04:12:02.758Z,7.32
2023-05-14T04:13:02.769Z,7.32
2023-05-14T04:14:02.736Z,7.36
2023-05-14T04:15:02.768Z,7.40
2023-05-14T04:16:02.774Z,7.44
2023-05-14T04:17:02.706Z,7.47
2023-05-14T04:18:02.698Z,7.48
2023-05-14T04:19:02.752Z,7.48
2023-05-14T04:20:02.665Z,7.50
2023-05-14T04:21:02.659Z,7.52
2023-05-14T04:22:02.662Z,7.54
2023-05-14T04:23:02.621Z,7.56
2023-05-14T04:24:02.621Z,7.57
2023-05-14T04:25:02.618Z,7.59
2023-05-14T04:26:02.586Z,7.61
2023-05-14T04:27:02.572Z,7.62
2023-05-14T04:28:02.569Z,7.61
2023-05-14T04:29:02.537Z,7.59
2023-05-14T04:30:02.542Z,7.58
2023-05-14T04:31:02.541Z,7.59
2023-05-14T04:32:02.520Z,7.62
2023-05-14T04:33:02.520Z,7.66
2023-05-14T04:34:02.453Z,7.71
2023-05-14T04:35:02.478Z,7.77
2023-05-14T04:36:02.458Z,7.83
2023-05-14T04:37:02.434Z,7.90
2023-05-14T04:38:02.429Z,7.97
2023-05-14T04:39:02.463Z,8.05
2023-05-14T04:40:02.415Z,8.12
2023-05-14T04:41:02.388Z,8.17
2023-05-14T04:42:02.377Z,8.21
2023-05-14T04:43:02.391Z,8.24
2023-05-14T04:44:02.338Z,8.25
2023-05-14T04:45:02.335Z,8.27
2023-05-14T04:46:02.429Z,8.31
2023-05-14T04:47:02.302Z,8.36
2023-05-14T04:48:02.318Z,8.41
2023-05-14T04:49:02.285Z,8.47
2023-05-14T04:50:02.256Z,8.53
2023-05-14T04:51:02.650Z,8.58
2023-05-14T04:52:02.238Z,8.63
2023-05-14T04:53:02.214Z,8.67
2023-05-14T04:54:02.279Z,8.71
2023-05-14T04:55:02.212Z,8.76
2023-05-14T04:56:02.201Z,8.82
2023-05-14T04:57:02.152Z,8.87
2023-05-14T04:58:02.147Z,8.93
2023-05-14T04:59:02.128Z,9.00
2023-05-14T05:00:02.135Z,9.09
2023-05-14T05:01:02.137Z,9.18
2023-05-14T05:02:02.084Z,9.24
2023-05-14T05:03:02.184Z,9.28
2023-05-14T05:04:02.104Z,9.29
2023-05-14T05:05:02.153Z,9.30
2023-05-14T05:06:02.035Z,9.32
2023-05-14T05:07:02.045Z,9.34
2023-05-14T05:08:02.032Z,9.35
2023-05-14T05:09:02.456Z,9.36
2023-05-14T05:10:02.038Z,9.38
2023-05-14T05:11:01.993Z,9.40
2023-05-14T05:12:01.997Z,9.41
2023-05-14T05:13:01.989Z,9.42
2023-05-14T05:14:02.004Z,9.44
2023-05-14T05:15:01.999Z,9.46
2023-05-14T05:16:02.048Z,9.49
2023-05-14T05:17:01.952Z,9.52
2023-05-14T05:18:02.005Z,9.56
2023-05-14T05:19:01.922Z,9.62
2023-05-14T05:20:01.897Z,9.68
2023-05-14T05:21:01.881Z,9.76
2023-05-14T05:22:01.916Z,9.84
2023-05-14T05:23:01.862Z,9.95
2023-05-14T05:24:01.905Z,10.06
2023-05-14T05:25:01.889Z,10.17
2023-05-14T05:26:01.785Z,10.28
2023-05-14T05:27:01.759Z,10.40
2023-05-14T05:28:01.787Z,10.51
2023-05-14T05:29:01.731Z,10.62
2023-05-14T05:30:01.766Z,10.73
2023-05-14T05:31:01.765Z,10.84
2023-05-14T05:32:01.704Z,10.94
2023-05-14T05:33:01.756Z,11.06
2023-05-14T05:34:01.672Z,11.18
2023-05-14T05:35:01.744Z,11.30
2023-05-14T05:36:01.689Z,11.42
2023-05-14T05:37:01.666Z,11.53
2023-05-14T05:38:01.997Z,11.63
2023-05-14T05:39:01.587Z,11.74
2023-05-14T05:40:01.615Z,11.84
2023-05-14T05:41:01.566Z,11.93
2023-05-14T05:42:01.571Z,12.00
2023-05-14T05:43:01.573Z,12.08
2023-05-14T05:44:01.543Z,12.16
2023-05-14T05:45:01.534Z,12.23
2023-05-14T05:46:01.550Z,12.29
2023-05-14T05:47:01.536Z,12.35
2023-05-14T05:48:01.561Z,12.41
2023-05-14T05:49:01.458Z,12.45
2023-05-14T05:50:01.463Z,12.50
2023-05-14T05:51:01.448Z,12.54
2023-05-14T05:52:01.426Z,12.58
2023-05-14T05:53:01.438Z,12.62
2023-05-14T05:54:01.403Z,12.65
2023-05-14T05:55:01.404Z,12.68
2023-05-14T05:56:01.371Z,12.72
2023-05-14T05:57:01.374Z,12.76
2023-05-14T05:58:01.501Z,12.82
2023-05-14T05:59:01.351Z,12.88
2023-05-14T06:00:01.373Z,12.95
2023-05-14T06:01:01.364Z,13.03
2023-05-14T06:02:01.390Z,13.10
2023-05-14T06:03:01.372Z,13.17
2023-05-14T06:04:01.297Z,13.25
2023-05-14T06:05:01.323Z,13.33
2023-05-14T06:06:01.259Z,13.40
2023-05-14T06:07:01.251Z,13.44
2023-05-14T06:08:01.237Z,13.47
2023-05-14T06:09:01.236Z,13.49
2023-05-14T06:10:01.233Z,13.52
2023-05-14T06:11:01.164Z,13.56
2023-05-14T06:12:01.201Z,13.59
2023-05-14T06:13:01.199Z,13.62
2023-05-14T06:14:01.185Z,13.65
2023-05-14T06:15:01.129Z,13.67
2023-05-14T06:16:01.260Z,13.67
2023-05-14T06:17:01.279Z,13.67
2023-05-14T06:18:01.135Z,13.65
2023-05-14T06:19:01.140Z,13.65
2023-05-14T06:20:01.063Z,13.66
2023-05-14T06:21:01.030Z,13.68
2023-05-14T06:22:01.050Z,13.71
2023-05-14T06:23:01.017Z,13.76
2023-05-14T06:24:01.046Z,13.83
2023-05-14T06:25:01.023Z,13.89
2023-05-14T06:26:01.008Z,13.95
2023-05-14T06:27:00.982Z,14.01
2023-05-14T06:28:00.959Z,14.08
2023-05-14T06:29:00.939Z,14.14
2023-05-14T06:30:00.904Z,14.19
2023-05-14T06:31:00.904Z,14.26
2023-05-14T06:32:00.924Z,14.32
2023-05-14T06:33:00.879Z,14.36
2023-05-14T06:34:00.841Z,14.39
2023-05-14T06:35:00.843Z,14.42
2023-05-14T06:36:00.937Z,14.46
2023-05-14T06:37:00.844Z,14.46
2023-05-14T06:38:00.815Z,14.44
2023-05-14T06:39:00.810Z,14.44
2023-05-14T06:40:00.762Z,14.45
2023-05-14T06:41:00.791Z,14.43
2023-05-14T06:42:00.744Z,14.43
2023-05-14T06:43:00.762Z,14.45
2023-05-14T06:44:00.717Z,14.49
2023-05-14T06:45:00.700Z,14.56
2023-05-14T06:46:00.703Z,14.63
2023-05-14T06:47:00.689Z,14.71
2023-05-14T06:48:00.787Z,14.79
2023-05-14T06:49:00.731Z,14.85
2023-05-14T06:50:00.626Z,14.89
2023-05-14T06:51:00.645Z,14.91
2023-05-14T06:52:00.620Z,14.92
2023-05-14T06:53:00.610Z,14.93
2023-05-14T06:54:00.577Z,14.95
2023-05-14T06:55:00.594Z,14.97
2023-05-14T06:56:00.577Z,14.99
2023-05-14T06:57:00.536Z,15.00
2023-05-14T06:58:00.543Z,15.02
2023-05-14T06:59:00.533Z,15.09
2023-05-14T07:00:02.794Z,15.18
2023-05-14T07:01:00.568Z,15.28
2023-05-14T07:02:00.542Z,15.31
2023-05-14T07:03:00.526Z,15.27
2023-05-14T07:04:00.807Z,15.26
2023-05-14T07:05:00.704Z,15.30
2023-05-14T07:06:00.416Z,15.33
2023-05-14T07:07:00.440Z,15.37
2023-05-14T07:08:00.614Z,15.46
2023-05-14T07:09:00.422Z,15.59
2023-05-14T07:10:00.473Z,15.75
2023-05-14T07:11:00.372Z,15.92
2023-05-14T07:12:00.901Z,16.05
2023-05-14T07:13:00.381Z,16.12
2023-05-14T07:14:00.317Z,16.16
2023-05-14T07:15:00.356Z,16.14
2023-05-14T07:16:00.295Z,16.12
2023-05-14T07:17:00.381Z,16.15
2023-05-14T07:18:00.364Z,16.21
2023-05-14T07:19:00.327Z,16.23
2023-05-14T07:20:00.259Z,16.26
2023-05-14T07:21:00.239Z,16.35
2023-05-14T07:22:00.413Z,16.46
2023-05-14T07:23:00.581Z,16.55
2023-05-14T07:24:00.209Z,16.61
2023-05-14T07:25:00.400Z,16.66
2023-05-14T07:26:00.206Z,16.75
2023-05-14T07:27:00.401Z,16.88
2023-05-14T07:28:00.213Z,17.02
2023-05-14T07:29:00.149Z,17.12
2023-05-14T07:30:00.196Z,17.25
2023-05-14T07:31:00.296Z,17.38
2023-05-14T07:32:00.132Z,17.44
2023-05-14T07:33:00.318Z,17.45
2023-05-14T07:34:00.119Z,17.43
2023-05-14T07:35:00.078Z,17.45
2023-05-14T07:36:00.042Z,17.51
2023-05-14T07:37:00.478Z,17.57
2023-05-14T07:38:00.046Z,17.62
2023-05-14T07:38:59.969Z,17.68
2023-05-14T07:40:00.242Z,17.68
2023-05-14T07:41:01.502Z,17.63
2023-05-14T07:42:00.575Z,17.62
2023-05-14T07:42:59.970Z,17.67
2023-05-14T07:44:00.168Z,17.77
2023-05-14T07:44:59.911Z,17.90
2023-05-14T07:45:59.993Z,18.00
2023-05-14T07:47:00.302Z,18.07
2023-05-14T07:48:00.039Z,18.18
2023-05-14T07:48:59.838Z,18.24
2023-05-14T07:49:59.909Z,18.19
2023-05-14T07:50:59.962Z,18.13
2023-05-14T07:51:59.820Z,18.12
2023-05-14T07:52:59.796Z,18.17
2023-05-14T07:53:59.772Z,18.25
2023-05-14T07:54:59.978Z,18.33
2023-05-14T07:55:59.787Z,18.35
2023-05-14T07:56:59.754Z,18.29
2023-05-14T07:57:59.720Z,18.11
2023-05-14T07:58:59.732Z,17.92
2023-05-14T07:59:59.707Z,17.85
2023-05-14T08:00:59.920Z,17.88
2023-05-14T08:01:59.711Z,17.96
2023-05-14T08:02:59.848Z,18.11
2023-05-14T08:04:00.054Z,18.32
2023-05-14T08:04:59.655Z,18.57
2023-05-14T08:05:59.615Z,18.73
2023-05-14T08:06:59.611Z,18.80
2023-05-14T08:07:59.629Z,18.91
2023-05-14T08:08:59.875Z,19.07
2023-05-14T08:09:59.566Z,19.21
2023-05-14T08:10:59.604Z,19.29
2023-05-14T08:11:59.744Z,19.30
2023-05-14T08:12:59.543Z,19.19
2023-05-14T08:13:59.538Z,18.94
2023-05-14T08:14:59.624Z,18.76
2023-05-14T08:15:59.704Z,18.76
2023-05-14T08:16:59.538Z,18.82
2023-05-14T08:17:59.506Z,18.84
2023-05-14T08:18:59.544Z,18.83
2023-05-14T08:19:59.717Z,18.94
2023-05-14T08:20:59.733Z,19.17
2023-05-14T08:21:59.517Z,19.36
2023-05-14T08:22:59.413Z,19.43
2023-05-14T08:23:59.383Z,19.47
2023-05-14T08:24:59.361Z,19.50
2023-05-14T08:25:59.380Z,19.59
2023-05-14T08:26:59.335Z,19.77
2023-05-14T08:27:59.344Z,19.96
2023-05-14T08:28:59.693Z,20.09
2023-05-14T08:29:59.312Z,20.17
2023-05-14T08:30:59.336Z,20.11
2023-05-14T08:32:03.701Z,19.94
2023-05-14T08:32:59.319Z,19.85
2023-05-14T08:33:59.249Z,19.92
2023-05-14T08:34:59.258Z,20.13
2023-05-14T08:35:59.240Z,20.32
2023-05-14T08:36:59.237Z,20.40
2023-05-14T08:37:59.209Z,20.42
2023-05-14T08:38:59.288Z,20.44
2023-05-14T08:39:59.286Z,20.46
2023-05-14T08:40:59.157Z,20.54
2023-05-14T08:41:59.183Z,20.66
2023-05-14T08:42:59.184Z,20.81
2023-05-14T08:43:59.120Z,21.04
2023-05-14T08:44:59.233Z,21.26
2023-05-14T08:45:59.139Z,21.40
2023-05-14T08:46:59.115Z,21.57
2023-05-14T08:47:59.137Z,21.83
2023-05-14T08:48:59.089Z,22.17
2023-05-14T08:49:59.041Z,22.59
2023-05-14T08:50:59.043Z,22.97
2023-05-14T08:51:59.037Z,23.22
2023-05-14T08:52:59.025Z,23.41
2023-05-14T08:53:59.022Z,23.60
2023-05-14T08:54:59.000Z,23.78
2023-05-14T08:55:58.979Z,23.84
2023-05-14T08:56:58.966Z,23.59
2023-05-14T08:57:58.932Z,23.14
2023-05-14T08:58:58.977Z,22.68
2023-05-14T08:59:58.923Z,22.36
2023-05-14T09:00:59.005Z,22.34
2023-05-14T09:01:58.966Z,22.51
2023-05-14T09:02:58.918Z,22.79
2023-05-14T09:03:58.933Z,23.14
2023-05-14T09:04:58.916Z,23.38
2023-05-14T09:06:00.117Z,23.40
2023-05-14T09:06:58.831Z,23.15
2023-05-14T09:07:58.857Z,22.54
2023-05-14T09:08:58.809Z,21.99
2023-05-14T09:09:58.821Z,21.77
2023-05-14T09:10:58.794Z,21.71
2023-05-14T09:11:58.783Z,21.74
2023-05-14T09:12:58.775Z,21.79
2023-05-14T09:13:58.753Z,21.72
2023-05-14T09:14:58.723Z,21.53
2023-05-14T09:15:58.826Z,21.47
2023-05-14T09:16:58.802Z,21.66
2023-05-14T09:17:58.735Z,21.95
2023-05-14T09:18:58.698Z,22.29
2023-05-14T09:19:58.766Z,22.58
2023-05-14T09:20:58.671Z,22.48
2023-05-14T09:21:58.640Z,22.14
2023-05-14T09:22:58.623Z,21.82
2023-05-14T09:23:58.672Z,21.59
2023-05-14T09:24:58.651Z,21.42
2023-05-14T09:25:58.611Z,21.32
2023-05-14T09:26:58.731Z,21.33
2023-05-14T09:27:59.063Z,21.46
2023-05-14T09:28:58.582Z,21.66
2023-05-14T09:29:58.562Z,21.62
2023-05-14T09:30:58.635Z,21.36
2023-05-14T09:31:58.610Z,21.18
2023-05-14T09:32:58.588Z,21.22
2023-05-14T09:33:58.520Z,21.35
2023-05-14T09:34:58.477Z,21.41
2023-05-14T09:35:58.499Z,21.42
2023-05-14T09:36:58.563Z,21.50
2023-05-14T09:37:58.434Z,21.67
2023-05-14T09:38:58.456Z,21.91
2023-05-14T09:39:58.427Z,22.09
2023-05-14T09:40:58.411Z,22.12
2023-05-14T09:41:58.406Z,21.93
2023-05-14T09:42:58.370Z,21.63
2023-05-14T09:43:58.366Z,21.40
2023-05-14T09:44:58.391Z,21.23
2023-05-14T09:45:58.353Z,21.14
2023-05-14T09:46:58.352Z,21.08
2023-05-14T09:47:58.480Z,20.96
2023-05-14T09:48:58.311Z,20.80
2023-05-14T09:49:58.277Z,20.67
2023-05-14T09:50:58.261Z,20.52
2023-05-14T09:51:58.265Z,20.32
2023-05-14T09:52:58.239Z,20.12
2023-05-14T09:53:58.239Z,19.92
2023-05-14T09:54:58.221Z,19.82
2023-05-14T09:55:58.195Z,19.83
2023-05-14T09:56:58.192Z,19.89
2023-05-14T09:57:58.171Z,19.99
2023-05-14T09:58:58.165Z,20.06
2023-05-14T09:59:58.208Z,20.06
2023-05-14T10:00:58.156Z,20.11
2023-05-14T10:01:58.154Z,20.41
2023-05-14T10:02:58.322Z,20.90
2023-05-14T10:03:58.140Z,21.51
2023-05-14T10:04:58.225Z,22.10
2023-05-14T10:05:58.144Z,22.35
2023-05-14T10:06:58.101Z,22.12
2023-05-14T10:07:58.055Z,21.67
2023-05-14T10:08:58.014Z,21.27
2023-05-14T10:09:59.584Z,20.92
2023-05-14T10:10:57.984Z,20.62
2023-05-14T10:11:58.029Z,20.37
2023-05-14T10:12:57.996Z,20.19
2023-05-14T10:13:57.987Z,20.05
2023-05-14T10:14:57.964Z,19.93
2023-05-14T10:15:57.935Z,19.84
2023-05-14T10:16:58.028Z,19.76
2023-05-14T10:17:58.003Z,19.66
2023-05-14T10:18:57.954Z,19.59
2023-05-14T10:19:57.916Z,19.57
2023-05-14T10:20:57.879Z,19.58
2023-05-14T10:21:57.858Z,19.62
2023-05-14T10:22:57.839Z,19.63
2023-05-14T10:23:57.848Z,19.59
2023-05-14T10:24:57.850Z,19.58
2023-05-14T10:25:57.806Z,19.59
2023-05-14T10:26:57.810Z,19.59
2023-05-14T10:27:57.794Z,19.58
2023-05-14T10:28:57.800Z,19.55
2023-05-14T10:29:57.780Z,19.52
2023-05-14T10:30:57.757Z,19.52
2023-05-14T10:31:57.740Z,19.54
2023-05-14T10:32:57.846Z,19.57
2023-05-14T10:33:59.883Z,19.56
2023-05-14T10:34:57.715Z,19.52
2023-05-14T10:35:57.679Z,19.49
2023-05-14T10:36:57.680Z,19.49
2023-05-14T10:37:57.668Z,19.49
2023-05-14T10:38:57.675Z,19.50
2023-05-14T10:39:57.639Z,19.53
2023-05-14T10:40:57.631Z,19.54
2023-05-14T10:41:57.645Z,19.52
2023-05-14T10:42:57.614Z,19.49
2023-05-14T10:43:57.596Z,19.50
2023-05-14T10:44:57.576Z,19.51
2023-05-14T10:45:57.579Z,19.51
2023-05-14T10:46:57.714Z,19.53
2023-05-14T10:47:57.690Z,19.57
2023-05-14T10:48:57.569Z,19.58
2023-05-14T10:49:57.492Z,19.58
2023-05-14T10:50:57.632Z,19.61
2023-05-14T10:51:57.806Z,19.63
2023-05-14T10:52:57.495Z,19.60
2023-05-14T10:53:57.459Z,19.59
2023-05-14T10:54:57.843Z,19.57
2023-05-14T10:55:57.478Z,19.53
2023-05-14T10:56:57.392Z,19.46
2023-05-14T10:57:57.407Z,19.33
2023-05-14T10:58:57.373Z,19.18
2023-05-14T10:59:57.370Z,19.08
2023-05-14T11:00:57.322Z,19.01
2023-05-14T11:01:57.385Z,18.91
2023-05-14T11:02:57.363Z,18.83
2023-05-14T11:03:57.337Z,18.76
2023-05-14T11:04:57.281Z,18.72
2023-05-14T11:05:57.728Z,18.69
2023-05-14T11:06:57.287Z,18.67
2023-05-14T11:07:57.257Z,18.65
2023-05-14T11:08:57.228Z,18.62
2023-05-14T11:09:57.225Z,18.61
2023-05-14T11:10:57.246Z,18.63
2023-05-14T11:11:57.219Z,18.64
2023-05-14T11:12:57.184Z,18.62
2023-05-14T11:13:57.195Z,18.61
2023-05-14T11:14:57.153Z,18.65
2023-05-14T11:15:57.167Z,18.68
2023-05-14T11:16:57.224Z,18.71
2023-05-14T11:17:57.196Z,18.78
2023-05-14T11:18:57.129Z,18.89
2023-05-14T11:19:57.115Z,19.02
2023-05-14T11:20:57.079Z,19.14
2023-05-14T11:21:57.091Z,19.26
2023-05-14T11:22:57.094Z,19.41
2023-05-14T11:23:57.109Z,19.67
2023-05-14T11:24:57.137Z,19.91
2023-05-14T11:25:57.069Z,20.14
2023-05-14T11:26:57.010Z,20.33
2023-05-14T11:27:56.988Z,20.43
2023-05-14T11:28:57.013Z,20.46
2023-05-14T11:29:56.980Z,20.41
2023-05-14T11:30:56.961Z,20.27
2023-05-14T11:31:56.964Z,20.13
2023-05-14T11:32:57.352Z,20.07
2023-05-14T11:33:56.896Z,20.07
2023-05-14T11:34:56.888Z,20.07
2023-05-14T11:35:56.971Z,20.06
2023-05-14T11:36:56.856Z,20.04
2023-05-14T11:37:56.902Z,19.99
2023-05-14T11:38:56.845Z,19.92
2023-05-14T11:39:56.846Z,19.86
2023-05-14T11:40:56.864Z,19.78
2023-05-14T11:41:56.791Z,19.67
2023-05-14T11:42:56.776Z,19.57
2023-05-14T11:43:56.784Z,19.48
2023-05-14T11:44:56.776Z,19.41
2023-05-14T11:45:56.999Z,19.33
2023-05-14T11:46:56.752Z,19.25
2023-05-14T11:47:56.743Z,19.16
2023-05-14T11:48:56.733Z,19.07
2023-05-14T11:49:56.705Z,18.99
2023-05-14T11:50:56.699Z,18.91
2023-05-14T11:51:56.769Z,18.87
2023-05-14T11:52:56.665Z,18.87
2023-05-14T11:53:56.645Z,18.88
2023-05-14T11:54:56.618Z,18.91
2023-05-14T11:55:56.613Z,18.95
2023-05-14T11:56:56.630Z,19.01
2023-05-14T11:57:56.612Z,19.09
2023-05-14T11:58:56.590Z,19.17
2023-05-14T11:59:56.576Z,19.25
2023-05-14T12:00:56.597Z,19.31
2023-05-14T12:01:56.544Z,19.37
2023-05-14T12:02:56.613Z,19.43
2023-05-14T12:03:56.662Z,19.48
2023-05-14T12:04:56.534Z,19.50
2023-05-14T12:05:56.520Z,19.53
2023-05-14T12:06:56.462Z,19.57
2023-05-14T12:07:56.526Z,19.65
2023-05-14T12:08:56.434Z,19.76
2023-05-14T12:09:56.429Z,19.92
2023-05-14T12:10:56.399Z,20.09
2023-05-14T12:11:56.377Z,20.21
2023-05-14T12:12:56.390Z,20.28
2023-05-14T12:13:56.385Z,20.38
2023-05-14T12:14:56.377Z,20.49
2023-05-14T12:15:56.406Z,20.50
2023-05-14T12:16:56.322Z,20.51
2023-05-14T12:17:56.346Z,20.64
2023-05-14T12:18:56.326Z,20.76
2023-05-14T12:19:56.315Z,20.88
2023-05-14T12:20:56.308Z,21.03
2023-05-14T12:21:56.253Z,21.09
2023-05-14T12:22:56.267Z,21.03
2023-05-14T12:23:56.219Z,21.01
2023-05-14T12:24:56.289Z,21.11
2023-05-14T12:25:56.220Z,21.22
2023-05-14T12:26:56.219Z,21.39
2023-05-14T12:27:56.197Z,21.57
2023-05-14T12:28:56.161Z,21.66
2023-05-14T12:29:56.299Z,21.71
2023-05-14T12:30:56.190Z,21.82
2023-05-14T12:31:56.216Z,22.00
2023-05-14T12:32:56.168Z,22.12
2023-05-14T12:33:56.088Z,22.09
2023-05-14T12:34:56.106Z,21.95
2023-05-14T12:35:56.701Z,21.94
2023-05-14T12:36:56.076Z,22.08
2023-05-14T12:37:56.051Z,22.20
2023-05-14T12:38:56.085Z,22.38
2023-05-14T12:39:56.015Z,22.54
2023-05-14T12:40:56.030Z,22.53
2023-05-14T12:41:56.021Z,22.52
2023-05-14T12:42:56.905Z,22.47
2023-05-14T12:43:55.973Z,22.23
2023-05-14T12:44:55.969Z,22.04
2023-05-14T12:45:55.978Z,21.99
2023-05-14T12:46:55.987Z,21.86
2023-05-14T12:47:55.975Z,21.58
2023-05-14T12:48:55.931Z,21.26
2023-05-14T12:49:55.889Z,21.02
2023-05-14T12:50:55.874Z,20.90
2023-05-14T12:52:07.667Z,20.81
2023-05-14T12:52:55.860Z,20.73
2023-05-14T12:53:55.908Z,20.69
2023-05-14T12:54:55.836Z,20.63
2023-05-14T12:55:55.806Z,20.58
2023-05-14T12:56:55.806Z,20.51
2023-05-14T12:57:55.776Z,20.45
2023-05-14T12:58:55.814Z,20.40
2023-05-14T12:59:55.750Z,20.33
2023-05-14T13:00:55.795Z,20.21
2023-05-14T13:01:55.729Z,20.06
2023-05-14T13:02:55.767Z,19.94